Terminal Aerodrome Forecast
Issued by NWS

Home | Current Version | Previous Version | Text Only | Print | Product List | Glossary On
Versions: 1 2 3 4 5 6 7 8 9 10 11 12 13 14 15 16 17 18 19 20 21 22 23 24 25 26 27 28 29 30 31 32 33 34 35
000
FTUS43 KDMX 310534
TAFOTM
TAF
KOTM 310534Z 3106/0106 12007KT P6SM BKN090
     FM311400 23009KT 5SM BR SCT012 BKN030 OVC100
     FM311800 24008KT 2SM -RA OVC015
     FM312300 12007KT 3/4SM -RASN BR OVC007=

USA.gov is the U.S. government's official web portal to all federal, state and local government web resources and services.